Time;durP1;ratioP1;P1;durP2;ratioP2;P2;SDS_P1;SDS_P2;PMS_P1;PMS_P2;Temp;Humidity;BMP_temperature;BMP_pressure;BME280_temperature;BME280_humidity;BME280_pressure;Samples;Min_cycle;Max_cycle;Signal;HPM_P1;HPM_P2
2021/05/20 00:01:46;;;;;;;0.20;0.20;;;;;;;9.08;62.19;100921.50;6129445;23;20009;-73
2021/05/20 00:04:11;;;;;;;0.10;0.10;;;;;;;9.09;62.91;100921.25;6094319;23;20024;-73
2021/05/20 00:06:37;;;;;;;0.20;0.13;;;;;;;9.07;62.30;100917.16;6123253;23;20014;-75
2021/05/20 00:09:04;;;;;;;0.43;0.30;;;;;;;9.07;62.68;100917.97;6091855;23;20033;-72
2021/05/20 00:11:30;;;;;;;0.38;0.30;;;;;;;9.07;63.72;100917.97;6095217;23;20021;-73
2021/05/20 00:13:56;;;;;;;0.43;0.30;;;;;;;9.04;62.96;100912.19;6075369;23;20010;-71
2021/05/20 00:16:22;;;;;;;0.38;0.35;;;;;;;9.05;63.84;100920.13;6139930;23;20018;-72
2021/05/20 00:18:47;;;;;;;0.25;0.25;;;;;;;9.03;62.92;100910.53;6123472;23;20010;-73
2021/05/20 00:21:12;;;;;;;0.60;0.52;;;;;;;9.01;63.36;100923.56;6121520;23;20064;-73
2021/05/20 00:23:38;;;;;;;1.65;0.73;;;;;;;8.96;64.02;100918.84;6121339;23;20298;-73
2021/05/20 00:26:03;;;;;;;2.55;0.70;;;;;;;8.91;64.67;100914.09;6120452;23;20006;-72
2021/05/20 00:28:29;;;;;;;0.40;0.40;;;;;;;8.87;63.90;100907.47;6121042;23;20010;-74
2021/05/20 00:30:54;;;;;;;0.40;0.30;;;;;;;8.81;64.68;100902.19;6121535;23;20048;-73
2021/05/20 00:33:19;;;;;;;0.20;0.20;;;;;;;8.82;63.75;100904.66;6121654;23;20009;-73
2021/05/20 00:35:45;;;;;;;0.28;0.22;;;;;;;8.80;64.58;100893.16;6114077;23;20010;-73
2021/05/20 00:38:11;;;;;;;0.00;0.00;;;;;;;8.79;63.32;100899.72;6124108;23;20014;-72
2021/05/20 00:40:37;;;;;;;0.00;0.00;;;;;;;8.79;63.86;100888.78;6123997;23;20445;-73
2021/05/20 00:43:03;;;;;;;0.00;0.00;;;;;;;8.78;63.73;100900.75;6093963;23;20010;-73
2021/05/20 00:45:28;;;;;;;0.10;0.10;;;;;;;8.77;63.17;100893.66;6122631;23;20088;-73
2021/05/20 00:47:53;;;;;;;0.00;0.00;;;;;;;8.78;64.03;100898.03;6116425;23;20014;-72
2021/05/20 00:50:19;;;;;;;0.10;0.00;;;;;;;8.77;63.79;100896.38;6116648;23;20014;-72
2021/05/20 00:52:45;;;;;;;0.10;0.10;;;;;;;8.74;64.14;100899.59;6119727;23;20057;-71
2021/05/20 00:55:12;;;;;;;0.28;0.20;;;;;;;8.71;65.23;100897.34;6117539;23;20009;-73
2021/05/20 00:57:39;;;;;;;0.30;0.20;;;;;;;8.68;64.55;100897.84;6122085;23;20009;-72
2021/05/20 01:00:10;;;;;;;0.20;0.10;;;;;;;8.66;63.86;100898.09;6118483;23;20275;-73
2021/05/20 01:02:40;;;;;;;0.10;0.10;;;;;;;8.65;64.45;100893.69;6120732;23;20010;-72
2021/05/20 01:05:07;;;;;;;0.10;0.03;;;;;;;8.66;64.65;100891.78;6121952;23;20472;-73
2021/05/20 01:07:33;;;;;;;0.22;0.20;;;;;;;8.62;64.48;100888.72;6120986;23;20006;-74
2021/05/20 01:09:59;;;;;;;0.32;0.25;;;;;;;8.61;65.05;100887.06;6124726;23;20014;-74
2021/05/20 01:12:24;;;;;;;0.25;0.25;;;;;;;8.53;64.24;100877.38;6119059;23;20010;-75
2021/05/20 01:14:49;;;;;;;0.75;0.43;;;;;;;8.54;64.43;100879.03;6124812;23;20022;-75
2021/05/20 01:17:15;;;;;;;0.50;0.50;;;;;;;8.51;65.55;100887.69;6121752;23;20409;-76
2021/05/20 01:19:46;;;;;;;0.80;0.75;;;;;;;8.48;65.37;100887.34;6097923;23;20020;-74
2021/05/20 01:22:15;;;;;;;0.68;0.50;;;;;;;8.48;65.03;100882.69;6122035;23;20016;-73
2021/05/20 01:24:41;;;;;;;0.60;0.40;;;;;;;8.50;65.02;100890.66;6121634;23;20021;-73
2021/05/20 01:27:08;;;;;;;3.42;0.40;;;;;;;8.51;64.89;100882.25;6098244;23;20014;-75
2021/05/20 01:29:34;;;;;;;0.30;0.30;;;;;;;8.52;65.78;100878.44;6121910;23;20020;-73
2021/05/20 01:32:01;;;;;;;0.20;0.20;;;;;;;8.54;64.84;100881.75;6101399;23;20006;-74
2021/05/20 01:34:31;;;;;;;0.10;0.10;;;;;;;8.52;65.29;100872.97;6120506;23;20057;-74
2021/05/20 01:36:57;;;;;;;1.95;0.20;;;;;;;8.55;64.93;100877.13;6099349;23;20010;-75
2021/05/20 01:39:22;;;;;;;0.20;0.10;;;;;;;8.55;65.18;100869.75;6096509;23;20010;-73
2021/05/20 01:41:48;;;;;;;0.13;0.10;;;;;;;8.55;65.82;100864.31;6095690;23;20014;-74
2021/05/20 01:44:13;;;;;;;0.10;0.10;;;;;;;8.54;64.81;100865.41;6092466;23;20014;-74
2021/05/20 01:46:38;;;;;;;0.20;0.08;;;;;;;8.55;65.97;100874.41;6124626;23;20014;-74
2021/05/20 01:49:09;;;;;;;0.00;0.00;;;;;;;8.54;65.80;100870.84;6096504;23;20020;-75
2021/05/20 01:51:35;;;;;;;0.05;0.05;;;;;;;8.54;65.34;100870.00;6115234;23;20017;-74
2021/05/20 01:54:01;;;;;;;0.20;0.10;;;;;;;8.53;66.15;100869.19;6116439;23;20006;-74
2021/05/20 01:56:27;;;;;;;0.00;0.00;;;;;;;8.50;66.13;100858.78;6120614;23;20008;-73
2021/05/20 01:58:54;;;;;;;0.10;0.00;;;;;;;8.52;66.39;100855.81;6108101;23;20070;-74
2021/05/20 02:01:19;;;;;;;0.10;0.03;;;;;;;8.50;65.77;100852.50;6132449;23;20009;-74
2021/05/20 02:03:45;;;;;;;2.22;0.00;;;;;;;8.54;66.33;100853.66;6131023;23;20369;-74
2021/05/20 02:06:12;;;;;;;0.82;0.00;;;;;;;8.54;65.46;100840.03;6080542;23;20014;-73
2021/05/20 02:08:39;;;;;;;0.00;0.00;;;;;;;8.58;65.98;100843.09;6124589;23;20029;-73
2021/05/20 02:11:05;;;;;;;0.15;0.00;;;;;;;8.59;65.38;100840.13;6100098;23;20006;-74
2021/05/20 02:13:31;;;;;;;0.00;0.00;;;;;;;8.63;65.33;100838.59;6132254;23;20089;-74
2021/05/20 02:15:57;;;;;;;0.98;0.10;;;;;;;8.64;66.05;100831.22;6131582;23;20076;-75
2021/05/20 02:18:23;;;;;;;0.00;0.00;;;;;;;8.66;66.27;100823.63;6080851;23;20006;-74
2021/05/20 02:20:49;;;;;;;0.10;0.00;;;;;;;8.64;66.32;100825.78;6130458;23;20013;-75
2021/05/20 02:23:16;;;;;;;0.93;0.00;;;;;;;8.66;66.29;100827.19;6075249;23;20010;-75
2021/05/20 02:25:42;;;;;;;0.20;0.20;;;;;;;8.66;65.73;100823.63;6127045;23;20096;-75
2021/05/20 02:28:07;;;;;;;0.10;0.10;;;;;;;8.67;65.77;100825.28;6102514;23;20413;-75
2021/05/20 02:30:33;;;;;;;0.05;0.05;;;;;;;8.68;65.76;100824.22;6099748;23;20010;-75
2021/05/20 02:32:59;;;;;;;0.00;0.00;;;;;;;8.70;65.71;100808.44;6101583;23;20014;-75
2021/05/20 02:35:27;;;;;;;0.08;0.03;;;;;;;8.71;65.83;100810.09;6077062;23;20033;-75
2021/05/20 02:37:54;;;;;;;0.52;0.00;;;;;;;8.70;66.10;100808.44;6103077;23;20036;-75
2021/05/20 02:40:20;;;;;;;0.35;0.00;;;;;;;8.72;66.29;100809.03;6102529;23;20013;-74
2021/05/20 02:42:47;;;;;;;0.20;0.00;;;;;;;8.71;65.62;100804.66;6122158;23;20014;-75
2021/05/20 02:45:20;;;;;;;0.20;0.20;;;;;;;8.72;65.36;100800.84;6097213;23;20049;-76
2021/05/20 02:47:48;;;;;;;0.00;0.00;;;;;;;8.68;66.08;100795.03;6125700;23;20005;-73
2021/05/20 02:50:15;;;;;;;0.10;0.10;;;;;;;8.70;66.40;100787.47;6080317;23;20077;-74
2021/05/20 02:52:44;;;;;;;0.17;0.17;;;;;;;8.72;66.13;100790.75;6119551;23;20078;-75
2021/05/20 02:55:20;;;;;;;0.25;0.10;;;;;;;8.73;66.22;100786.13;6124457;23;20013;-75
2021/05/20 02:58:04;;;;;;;0.00;0.00;;;;;;;8.76;65.97;100780.22;6119099;23;20443;-74
2021/05/20 03:00:35;;;;;;;0.45;0.10;;;;;;;8.79;66.40;100778.88;6102431;23;20002;-74
2021/05/20 03:03:01;;;;;;;0.20;0.10;;;;;;;8.79;65.86;100771.53;6123095;23;20013;-73
2021/05/20 03:05:27;;;;;;;0.10;0.10;;;;;;;8.79;66.53;100768.81;6123541;23;20032;-74
2021/05/20 03:07:56;;;;;;;0.10;0.10;;;;;;;8.85;65.98;100767.00;6072898;23;20014;-74
2021/05/20 03:10:21;;;;;;;0.10;0.10;;;;;;;8.84;67.03;100763.44;6071938;23;20082;-75
2021/05/20 03:12:47;;;;;;;0.43;0.17;;;;;;;8.84;66.47;100766.16;6097633;23;20002;-74
2021/05/20 03:15:12;;;;;;;0.15;0.10;;;;;;;8.86;67.04;100772.22;6120891;23;20021;-73
2021/05/20 03:17:38;;;;;;;0.35;0.25;;;;;;;8.86;66.44;100766.75;6120444;23;20326;-74
2021/05/20 03:20:05;;;;;;;0.20;0.10;;;;;;;8.88;67.22;100756.41;6098740;23;20077;-74
2021/05/20 03:22:31;;;;;;;0.45;0.20;;;;;;;8.89;66.92;100762.69;6119509;23;20006;-74
2021/05/20 03:24:56;;;;;;;0.30;0.20;;;;;;;8.91;66.38;100755.09;6095447;23;20145;-74
2021/05/20 03:27:21;;;;;;;0.08;0.05;;;;;;;8.90;66.60;100743.34;6123179;23;20133;-74
2021/05/20 03:29:47;;;;;;;0.52;0.13;;;;;;;8.91;67.78;100750.47;6094543;23;20010;-74
2021/05/20 03:32:13;;;;;;;0.40;0.28;;;;;;;8.91;67.14;100755.09;6074688;23;20009;-74
2021/05/20 03:34:38;;;;;;;0.85;0.20;;;;;;;8.90;66.73;100751.53;6121940;23;20002;-74
2021/05/20 03:37:03;;;;;;;1.13;0.20;;;;;;;8.88;67.62;100745.50;6123170;23;20010;-74
2021/05/20 03:39:30;;;;;;;2.40;0.30;;;;;;;8.90;67.20;100737.06;6095361;23;20009;-75
2021/05/20 03:41:56;;;;;;;0.20;0.20;;;;;;;8.90;67.16;100729.72;6125465;23;20017;-73
2021/05/20 03:44:21;;;;;;;0.10;0.10;;;;;;;8.89;67.30;100736.25;6124694;23;20006;-73
2021/05/20 03:46:47;;;;;;;0.50;0.20;;;;;;;8.88;67.91;100733.78;6097531;23;20010;-74
2021/05/20 03:49:13;;;;;;;0.32;0.30;;;;;;;8.85;67.23;100735.09;6094667;23;20010;-75
2021/05/20 03:51:39;;;;;;;2.50;0.20;;;;;;;8.83;67.07;100729.03;6125664;23;20014;-73
2021/05/20 03:54:04;;;;;;;0.40;0.30;;;;;;;8.83;67.94;100720.84;6123386;23;20017;-74
2021/05/20 03:56:30;;;;;;;0.10;0.10;;;;;;;8.84;67.63;100725.25;6095771;23;20694;-74
2021/05/20 03:58:55;;;;;;;0.20;0.20;;;;;;;8.85;68.02;100723.38;6104890;23;20006;-74
2021/05/20 04:01:21;;;;;;;0.70;0.20;;;;;;;8.87;67.92;100721.22;6133161;23;20029;-73
2021/05/20 04:03:46;;;;;;;0.20;0.20;;;;;;;8.86;68.00;100720.41;6081108;23;20010;-72
2021/05/20 04:06:12;;;;;;;0.20;0.20;;;;;;;8.86;67.58;100717.66;6124261;23;20006;-71
2021/05/20 04:08:37;;;;;;;0.20;0.20;;;;;;;8.88;68.25;100718.22;6103899;23;20010;-74
2021/05/20 04:11:03;;;;;;;0.20;0.20;;;;;;;8.88;68.11;100710.06;6102221;23;20017;-75
2021/05/20 04:13:34;;;;;;;0.88;0.30;;;;;;;8.87;67.64;100708.38;6099774;23;20037;-74
2021/05/20 04:16:00;;;;;;;0.75;0.57;;;;;;;8.83;67.51;100692.78;6121609;23;20018;-70
2021/05/20 04:18:26;;;;;;;0.20;0.20;;;;;;;8.88;68.48;100703.78;6098863;23;20021;-72
2021/05/20 04:20:52;;;;;;;0.38;0.20;;;;;;;8.88;68.32;100699.13;6125279;23;20010;-72
2021/05/20 04:23:18;;;;;;;0.85;0.20;;;;;;;8.90;68.49;100701.63;6126835;23;20037;-74
2021/05/20 04:25:45;;;;;;;2.30;0.45;;;;;;;8.91;68.39;100701.38;6125919;23;20065;-74
2021/05/20 04:28:11;;;;;;;0.82;0.30;;;;;;;8.95;68.76;100689.97;6121451;23;20010;-73
2021/05/20 04:30:37;;;;;;;0.90;0.28;;;;;;;8.97;67.86;100687.81;6129001;23;20005;-74
2021/05/20 04:33:03;;;;;;;1.98;0.50;;;;;;;8.92;68.78;100677.63;6135675;23;20009;-73
2021/05/20 04:35:29;;;;;;;0.50;0.43;;;;;;;8.96;68.56;100678.78;6114370;23;20026;-73
2021/05/20 04:37:54;;;;;;;3.00;0.38;;;;;;;8.98;68.95;100673.09;6119161;23;20038;-74
2021/05/20 04:40:20;;;;;;;0.30;0.30;;;;;;;8.99;68.52;100667.38;6106211;23;20037;-74
2021/05/20 04:42:45;;;;;;;5.18;0.55;;;;;;;9.06;68.84;100670.78;6109959;23;20006;-74
2021/05/20 04:45:12;;;;;;;1.90;0.60;;;;;;;9.14;69.05;100677.72;6109435;23;20066;-76
2021/05/20 04:47:37;;;;;;;3.42;0.30;;;;;;;9.20;68.79;100671.25;6128405;23;20388;-74
2021/05/20 04:50:03;;;;;;;0.32;0.32;;;;;;;9.25;68.28;100679.50;6122671;23;20006;-74
2021/05/20 04:52:29;;;;;;;0.10;0.10;;;;;;;9.33;68.50;100675.53;6121131;23;20006;-74
2021/05/20 04:54:54;;;;;;;1.20;0.47;;;;;;;9.37;68.32;100667.66;6100744;23;20010;-75
2021/05/20 04:57:20;;;;;;;0.20;0.20;;;;;;;9.49;68.97;100662.94;6096707;23;20016;-74
2021/05/20 04:59:45;;;;;;;0.88;0.22;;;;;;;9.56;67.80;100658.09;6099933;23;20069;-74
2021/05/20 05:02:10;;;;;;;0.50;0.43;;;;;;;9.63;67.79;100668.00;6124676;23;20006;-75
2021/05/20 05:04:36;;;;;;;0.20;0.20;;;;;;;9.63;67.93;100662.53;6121788;23;20014;-76
2021/05/20 05:07:02;;;;;;;2.13;0.60;;;;;;;9.61;67.91;100655.44;6099463;23;20080;-77
2021/05/20 05:09:27;;;;;;;0.65;0.55;;;;;;;9.63;68.51;100659.81;6072592;23;20044;-73
2021/05/20 05:11:52;;;;;;;0.35;0.35;;;;;;;9.60;68.45;100648.31;6097862;23;20010;-74
2021/05/20 05:14:18;;;;;;;0.20;0.20;;;;;;;9.65;68.99;100654.91;6097736;23;20068;-73
2021/05/20 05:16:43;;;;;;;0.85;0.30;;;;;;;9.69;68.14;100656.88;6136915;23;20014;-73
2021/05/20 05:19:09;;;;;;;0.38;0.38;;;;;;;9.70;68.63;100647.63;6133048;23;20013;-73
2021/05/20 05:21:35;;;;;;;0.45;0.17;;;;;;;9.71;68.11;100651.16;6119982;23;20006;-73
2021/05/20 05:24:00;;;;;;;0.82;0.20;;;;;;;9.75;67.86;100644.13;6101958;23;20014;-74
2021/05/20 05:26:27;;;;;;;0.40;0.30;;;;;;;9.79;68.08;100640.63;6076922;23;20092;-74
2021/05/20 05:28:53;;;;;;;0.68;0.20;;;;;;;9.84;69.12;100636.28;6126760;23;20380;-73
2021/05/20 05:31:22;;;;;;;1.23;0.38;;;;;;;9.89;68.28;100630.91;6098128;23;20104;-74
2021/05/20 05:33:48;;;;;;;0.30;0.30;;;;;;;9.91;68.84;100621.34;6124735;23;20468;-73
2021/05/20 05:36:43;;;;;;;0.35;0.17;;;;;;;10.05;68.26;100616.31;6098486;23;20018;-74
2021/05/20 05:39:34;;;;;;;0.25;0.25;;;;;;;10.03;68.54;100602.09;6126489;23;20013;-73
2021/05/20 05:42:10;;;;;;;0.75;0.75;;;;;;;10.14;68.34;100603.00;6079501;23;20014;-73
2021/05/20 05:44:41;;;;;;;1.00;0.40;;;;;;;10.12;68.49;100603.28;6076056;23;20020;-73
2021/05/20 05:47:09;;;;;;;0.73;0.43;;;;;;;10.20;68.51;100601.97;6071543;23;20078;-73
2021/05/20 05:49:41;;;;;;;3.58;0.95;;;;;;;10.23;69.15;100601.44;6124392;23;20029;-72
2021/05/20 05:52:08;;;;;;;2.92;0.70;;;;;;;10.23;69.60;100600.63;6120944;23;20052;-73
2021/05/20 05:54:34;;;;;;;2.58;0.93;;;;;;;10.23;69.46;100590.50;6121823;23;20045;-74
2021/05/20 05:56:59;;;;;;;0.65;0.40;;;;;;;10.28;69.53;100582.38;6068053;23;20010;-71
2021/05/20 05:59:25;;;;;;;3.20;1.00;;;;;;;10.36;70.38;100577.53;6070003;23;20418;-70
2021/05/20 06:01:50;;;;;;;0.80;0.52;;;;;;;10.41;70.01;100574.84;6096952;23;20335;-73
2021/05/20 06:04:16;;;;;;;4.05;1.05;;;;;;;10.51;70.85;100579.56;6064307;23;20070;-74
2021/05/20 06:06:43;;;;;;;0.65;0.50;;;;;;;10.57;70.52;100573.91;6100470;23;20580;-72
2021/05/20 06:09:10;;;;;;;3.63;0.68;;;;;;;10.61;70.20;100577.72;6094167;23;20100;-73
2021/05/20 06:11:35;;;;;;;2.17;0.70;;;;;;;10.61;70.58;100561.31;6126061;23;20033;-74
2021/05/20 06:14:03;;;;;;;1.00;0.30;;;;;;;10.68;70.31;100544.69;6125520;23;20384;-73
2021/05/20 06:16:30;;;;;;;2.30;0.40;;;;;;;10.76;70.47;100541.47;6107359;23;20041;-74
2021/05/20 06:18:55;;;;;;;3.78;0.70;;;;;;;10.77;69.87;100528.59;6125818;23;20399;-75
2021/05/20 06:21:21;;;;;;;2.00;0.50;;;;;;;10.85;70.68;100530.84;6125018;23;20037;-72
2021/05/20 06:23:47;;;;;;;2.28;1.00;;;;;;;10.85;70.69;100539.06;6123917;23;20012;-72
2021/05/20 06:26:12;;;;;;;3.63;1.67;;;;;;;10.87;71.34;100539.59;6122087;23;20081;-72
2021/05/20 06:28:38;;;;;;;1.38;1.10;;;;;;;10.92;71.09;100547.00;6125635;23;20014;-73
2021/05/20 06:31:03;;;;;;;3.22;1.05;;;;;;;10.94;72.08;100545.66;6100612;23;20006;-73
2021/05/20 06:33:29;;;;;;;7.93;1.60;;;;;;;10.96;72.35;100529.78;6127660;23;20085;-71
2021/05/20 06:35:54;;;;;;;3.95;1.42;;;;;;;11.00;72.65;100519.97;6127002;23;20033;-73
2021/05/20 06:38:20;;;;;;;7.50;1.45;;;;;;;11.03;72.40;100512.34;6112193;23;19994;-72
2021/05/20 06:40:48;;;;;;;2.88;1.80;;;;;;;11.04;73.16;100505.75;6142594;23;20087;-72
2021/05/20 06:43:14;;;;;;;6.80;1.60;;;;;;;11.08;73.08;100495.91;6148250;23;20010;-72
2021/05/20 06:45:39;;;;;;;5.35;1.30;;;;;;;11.12;73.13;100494.31;6143787;23;20069;-75
2021/05/20 06:48:05;;;;;;;1.92;1.40;;;;;;;11.20;72.81;100490.22;6098364;23;20005;-72
2021/05/20 06:50:30;;;;;;;4.57;1.98;;;;;;;11.24;73.10;100489.41;6125530;23;20061;-74
2021/05/20 06:52:56;;;;;;;5.88;2.10;;;;;;;11.33;73.54;100482.34;6122678;23;20006;-75
2021/05/20 06:55:24;;;;;;;2.83;1.55;;;;;;;11.43;73.29;100481.50;6127836;23;20006;-77
2021/05/20 07:00:36;;;;;;;3.45;1.70;;;;;;;11.60;72.85;100475.81;6126310;23;20396;-75
2021/05/20 07:03:03;;;;;;;8.10;2.22;;;;;;;11.62;73.06;100468.16;6127900;23;20010;-76
2021/05/20 07:05:29;;;;;;;6.75;1.60;;;;;;;11.67;72.97;100468.16;6128047;23;20049;-75
2021/05/20 07:07:54;;;;;;;12.90;2.10;;;;;;;11.74;72.99;100473.38;6129150;23;20006;-75
2021/05/20 07:10:21;;;;;;;6.40;2.08;;;;;;;11.75;73.31;100457.75;6124940;23;20009;-77
2021/05/20 07:12:46;;;;;;;6.78;1.65;;;;;;;11.80;73.11;100457.75;6102889;23;20038;-76
2021/05/20 07:15:12;;;;;;;3.00;1.90;;;;;;;11.77;73.41;100458.28;6118814;23;20022;-76
2021/05/20 07:17:37;;;;;;;13.38;2.00;;;;;;;11.80;73.38;100455.03;6100061;23;20386;-76
2021/05/20 07:20:05;;;;;;;12.30;2.53;;;;;;;11.80;72.63;100452.28;6099962;23;20017;-76
2021/05/20 07:22:31;;;;;;;6.15;1.73;;;;;;;11.83;72.75;100440.78;6124420;23;20010;-76
2021/05/20 07:25:00;;;;;;;13.52;2.63;;;;;;;11.89;72.81;100434.19;6077238;23;20010;-76
2021/05/20 07:27:25;;;;;;;3.83;1.48;;;;;;;11.99;72.50;100434.22;6100235;23;20014;-76
2021/05/20 07:29:51;;;;;;;7.53;1.45;;;;;;;12.04;72.18;100431.44;6095606;23;20497;-75
2021/05/20 07:32:18;;;;;;;3.05;1.40;;;;;;;12.10;71.59;100431.47;6092350;23;20433;-75
2021/05/20 07:34:44;;;;;;;6.20;1.38;;;;;;;12.09;71.57;100435.28;6127046;23;20006;-76
2021/05/20 07:37:10;;;;;;;7.78;1.40;;;;;;;12.02;71.58;100433.66;6097219;23;20084;-76
2021/05/20 07:39:36;;;;;;;10.25;1.80;;;;;;;11.96;71.52;100423.81;6090841;23;20013;-76
2021/05/20 07:42:01;;;;;;;3.97;1.13;;;;;;;11.92;71.76;100419.94;6126553;23;20010;-77
2021/05/20 07:44:27;;;;;;;4.60;1.92;;;;;;;11.89;72.18;100417.75;6118372;23;20037;-76
2021/05/20 07:46:54;;;;;;;6.05;1.90;;;;;;;11.86;72.77;100421.03;6102453;23;20442;-75
2021/05/20 07:49:19;;;;;;;6.25;1.42;;;;;;;11.80;72.31;100409.25;6123233;23;20014;-76
2021/05/20 07:51:48;;;;;;;7.70;1.40;;;;;;;11.78;72.73;100413.38;6123135;23;20089;-77
2021/05/20 07:54:13;;;;;;;7.97;1.27;;;;;;;11.72;72.99;100412.53;6098311;23;20020;-76
2021/05/20 07:56:38;;;;;;;2.53;0.90;;;;;;;11.69;73.20;100407.59;6101834;23;20418;-76
2021/05/20 07:59:04;;;;;;;6.93;0.93;;;;;;;11.65;72.95;100404.63;6127438;23;20006;-77
2021/05/20 08:01:31;;;;;;;5.88;1.63;;;;;;;11.68;73.04;100393.09;6077133;23;20044;-75
2021/05/20 08:04:03;;;;;;;4.63;1.60;;;;;;;11.69;73.08;100380.22;6095174;23;20025;-77
2021/05/20 08:07:08;;;;;;;7.90;1.27;;;;;;;11.76;73.02;100379.94;6127725;23;20033;-75
2021/05/20 08:11:46;;;;;;;6.85;1.40;;;;;;;11.90;72.43;100358.28;6128405;23;20033;-74
2021/05/20 08:14:12;;;;;;;10.95;1.33;;;;;;;12.09;71.75;100366.78;6122622;23;20006;-76
2021/05/20 08:16:37;;;;;;;9.05;1.20;;;;;;;12.24;70.85;100344.81;6100361;23;20098;-75
2021/05/20 08:19:03;;;;;;;6.47;1.48;;;;;;;12.39;70.81;100354.91;6099150;23;20092;-76
2021/05/20 08:21:29;;;;;;;4.15;1.38;;;;;;;12.47;69.88;100339.78;6125979;23;20013;-76
2021/05/20 08:23:54;;;;;;;7.40;1.92;;;;;;;12.60;69.49;100354.81;6097845;23;20006;-76
2021/05/20 08:26:24;;;;;;;10.05;1.20;;;;;;;12.59;68.93;100326.56;6067988;23;20014;-75
2021/05/20 08:28:51;;;;;;;5.80;1.23;;;;;;;12.62;68.60;100323.25;6100079;23;20014;-76
2021/05/20 08:31:17;;;;;;;10.38;1.52;;;;;;;12.59;68.15;100299.13;6096778;23;20042;-76
2021/05/20 08:33:42;;;;;;;5.35;0.80;;;;;;;12.59;67.86;100288.16;6127761;23;20013;-75
2021/05/20 08:36:08;;;;;;;8.68;1.42;;;;;;;12.65;68.35;100281.53;6104143;23;20440;-75
2021/05/20 08:38:33;;;;;;;3.85;1.13;;;;;;;12.64;68.31;100290.06;6128286;23;20006;-76
2021/05/20 08:40:59;;;;;;;6.72;1.20;;;;;;;12.61;68.46;100285.94;6080632;23;20097;-76
2021/05/20 08:43:24;;;;;;;13.35;1.95;;;;;;;12.57;68.43;100276.63;6126589;23;20033;-74
2021/05/20 08:45:51;;;;;;;8.18;1.45;;;;;;;12.52;67.85;100261.03;6101878;23;20013;-75
2021/05/20 08:48:17;;;;;;;5.90;1.15;;;;;;;12.58;67.89;100281.03;6126430;23;20013;-75
2021/05/20 08:50:42;;;;;;;3.75;0.75;;;;;;;12.67;68.31;100284.81;6128974;23;20006;-76
2021/05/20 08:53:08;;;;;;;4.38;1.73;;;;;;;12.78;67.40;100268.31;6129523;23;20010;-74
2021/05/20 08:55:35;;;;;;;9.75;1.33;;;;;;;12.77;67.33;100250.19;6080829;23;20006;-75
2021/05/20 08:58:04;;;;;;;1.92;0.70;;;;;;;12.80;67.52;100238.66;6127882;23;20006;-75
2021/05/20 09:00:30;;;;;;;9.70;1.35;;;;;;;12.84;67.26;100232.31;6130702;23;20057;-74
2021/05/20 09:03:07;;;;;;;5.40;0.90;;;;;;;12.94;67.27;100212.19;6104113;23;20010;-74
2021/05/20 09:05:33;;;;;;;6.63;1.27;;;;;;;13.03;66.62;100215.16;6108536;23;20414;-74
2021/05/20 09:08:01;;;;;;;2.05;1.00;;;;;;;13.16;65.93;100208.19;6135508;23;20014;-75
2021/05/20 09:10:29;;;;;;;7.20;0.95;;;;;;;13.28;65.35;100208.59;6109283;23;20040;-75
2021/05/20 09:13:01;;;;;;;9.38;1.08;;;;;;;13.41;64.79;100188.72;6131849;23;20009;-76
2021/05/20 09:15:28;;;;;;;10.40;1.52;;;;;;;13.33;63.93;100258.00;6119916;23;20021;-74
2021/05/20 09:18:21;;;;;;;12.45;1.50;;;;;;;13.36;63.79;100174.22;6164078;23;20037;-75
2021/05/20 09:20:52;;;;;;;7.60;1.13;;;;;;;13.41;64.00;100169.50;6137753;23;20010;-74
2021/05/20 09:23:23;;;;;;;3.72;1.65;;;;;;;13.47;63.70;100152.97;6157831;23;20060;-75
2021/05/20 09:25:51;;;;;;;5.65;1.33;;;;;;;13.46;63.52;100159.56;6163216;23;20024;-76
2021/05/20 09:28:30;;;;;;;7.00;0.95;;;;;;;13.53;62.68;100122.38;6158560;23;20413;-75
2021/05/20 09:30:55;;;;;;;6.90;1.15;;;;;;;13.62;63.05;100172.00;6155836;23;20436;-75
2021/05/20 09:33:21;;;;;;;11.60;1.45;;;;;;;13.74;62.74;100122.13;6134050;23;20021;-76
2021/05/20 09:35:49;;;;;;;1.60;0.80;;;;;;;13.88;62.21;100120.28;6156889;23;20001;-74
2021/05/20 09:38:22;;;;;;;2.78;0.98;;;;;;;13.92;61.60;100104.03;6158758;23;20005;-76
2021/05/20 09:40:56;;;;;;;5.55;1.48;;;;;;;13.88;61.56;100120.28;6159709;23;20029;-75
2021/05/20 09:43:32;;;;;;;16.00;1.00;;;;;;;13.76;62.17;100131.72;6157095;23;20424;-75
2021/05/20 09:45:59;;;;;;;5.22;1.05;;;;;;;13.83;61.89;100130.53;6161146;23;20005;-75
2021/05/20 09:48:32;;;;;;;4.50;0.70;;;;;;;13.93;60.32;100119.41;6140157;23;20255;-75
2021/05/20 09:50:58;;;;;;;3.58;0.73;;;;;;;14.17;60.87;100129.53;6155816;23;20016;-76
2021/05/20 09:53:26;;;;;;;5.25;0.88;;;;;;;14.27;59.99;100107.38;6127537;23;20005;-76
2021/05/20 09:56:00;;;;;;;6.78;1.08;;;;;;;14.53;60.13;100104.22;6128036;23;19997;-77
2021/05/20 09:58:28;;;;;;;10.07;1.00;;;;;;;14.82;59.10;100132.38;6154384;23;20100;-77
2021/05/20 10:00:58;;;;;;;2.95;0.80;;;;;;;15.00;57.14;100096.84;6155763;23;20076;-75
2021/05/20 10:03:25;;;;;;;3.88;0.93;;;;;;;15.14;57.24;100110.59;6155845;23;20642;-77
2021/05/20 10:06:03;;;;;;;1.85;1.27;;;;;;;15.66;56.67;100107.66;6104524;23;20325;-76
2021/05/20 10:08:32;;;;;;;3.83;1.00;;;;;;;15.97;55.14;100118.06;6151666;23;20017;-76
2021/05/20 10:11:03;;;;;;;8.93;0.70;;;;;;;16.22;53.58;100092.66;6127051;23;20693;-77
2021/05/20 10:13:30;;;;;;;2.50;0.50;;;;;;;16.35;52.51;100065.31;6131739;23;20341;-76
2021/05/20 10:15:57;;;;;;;5.80;1.27;;;;;;;16.32;51.76;100063.19;6132311;23;20021;-76
2021/05/20 10:18:24;;;;;;;1.80;0.73;;;;;;;16.43;51.58;100060.97;6157544;23;20009;-74
2021/05/20 10:20:53;;;;;;;2.80;0.63;;;;;;;16.78;50.04;100050.97;6155979;23;20008;-75
2021/05/20 10:23:20;;;;;;;3.83;0.60;;;;;;;17.27;48.17;100046.34;6159592;23;20051;-76
2021/05/20 10:25:48;;;;;;;8.77;0.90;;;;;;;17.19;46.68;100066.47;6128337;23;20040;-77
2021/05/20 10:28:16;;;;;;;2.08;0.93;;;;;;;16.86;47.15;100058.47;6162515;23;20041;-76
2021/05/20 10:30:56;;;;;;;3.30;0.80;;;;;;;16.39;47.69;100066.31;6135047;23;20017;-78
2021/05/20 10:33:29;;;;;;;7.90;0.80;;;;;;;15.85;49.03;100039.44;6133413;23;20332;-75
2021/05/20 10:35:57;;;;;;;3.22;0.63;;;;;;;15.51;50.12;100076.53;6132083;23;20005;-73
2021/05/20 10:38:25;;;;;;;2.92;0.75;;;;;;;15.23;50.60;100059.22;6132761;23;20036;-74
2021/05/20 10:41:11;;;;;;;4.43;0.50;;;;;;;14.93;51.48;100024.84;6132617;23;20063;-74
2021/05/20 10:43:41;;;;;;;6.97;0.80;;;;;;;14.93;51.52;100055.13;6133348;23;20333;-74
2021/05/20 10:46:17;;;;;;;1.15;0.55;;;;;;;14.37;55.89;100043.97;6159304;23;20001;-77
2021/05/20 10:48:49;;;;;;;;;;;;;;;13.84;58.88;100046.97;6129446;23;20448;-76
2021/05/20 10:51:21;;;;;;;9.23;0.93;;;;;;;13.33;60.80;100031.97;6154196;23;20320;-76
2021/05/20 10:54:05;;;;;;;7.53;0.93;;;;;;;13.19;60.84;100026.41;6151757;23;20004;-76
2021/05/20 10:56:33;;;;;;;6.68;0.57;;;;;;;12.94;62.14;100028.31;6156130;23;20008;-75
2021/05/20 10:59:01;;;;;;;5.50;0.50;;;;;;;12.78;63.01;100021.38;6157798;23;20056;-77
2021/05/20 11:01:27;;;;;;;10.82;0.90;;;;;;;12.81;63.06;100026.28;6111091;23;20065;-76
2021/05/20 11:03:57;;;;;;;8.23;0.60;;;;;;;12.83;63.37;99986.44;6161024;23;20005;-76
2021/05/20 11:06:44;;;;;;;7.00;1.52;;;;;;;12.86;63.55;100042.66;6154957;23;20012;-77
2021/05/20 11:09:14;;;;;;;3.97;0.80;;;;;;;12.61;64.63;99984.22;6152447;23;20009;-76
2021/05/20 11:11:39;;;;;;;3.97;1.55;;;;;;;12.54;65.15;99962.63;6126370;23;20044;-75
2021/05/20 11:14:14;;;;;;;5.28;0.85;;;;;;;12.53;66.22;99971.16;6148482;23;19998;-77
2021/05/20 11:16:44;;;;;;;5.13;0.75;;;;;;;12.52;66.64;99947.56;6130605;23;20053;-75
2021/05/20 11:19:23;;;;;;;2.67;1.35;;;;;;;12.80;64.61;99947.81;6130412;23;20341;-76
2021/05/20 11:21:57;;;;;;;7.90;0.68;;;;;;;13.04;64.21;100000.75;6131296;23;20012;-75
2021/05/20 11:24:47;;;;;;;;;;;;;;;;;;;;;
2021/05/20 11:27:23;;;;;;;1.35;0.40;;;;;;;13.29;63.39;99943.88;6156792;23;20084;-75
2021/05/20 11:29:53;;;;;;;6.75;0.93;;;;;;;13.20;63.42;99918.19;6130266;23;20013;-75
2021/05/20 11:38:02;;;;;;;7.22;0.80;;;;;;;12.84;65.24;99883.00;6157387;23;20333;-74
2021/05/20 11:40:37;;;;;;;7.32;1.05;;;;;;;12.80;65.92;99912.13;6156478;23;20006;-74
2021/05/20 11:43:03;;;;;;;2.28;1.48;;;;;;;12.36;67.67;99876.44;6127841;23;20056;-75
2021/05/20 11:45:33;;;;;;;2.38;0.70;;;;;;;12.27;69.16;99880.94;6119855;23;20033;-76